LLET/ETH METAR and TAF weather

Enter ICAO airport designator
Station Type Date Time Source
LLET METAR 2019/02/17 14:50 UTC NOAA

LLET 171450Z VRB02KT CAVOK 20/00 Q1018 RMK FEW060


Station Type Date Time Source
LLET Decoded METAR 2019/02/17 14:50 UTC NOAA

Eilat, Israel (LLET) 29-33N 034-57E 12M
Feb 17, 2019 - 09:50 AM EST / 2019.02.17 1450 UTC
Wind: Variable at 2 MPH (2 KT):0
Visibility: greater than 7 mile(s):0
Temperature: 68 F (20 C)
Dew Point: 32 F (0 C)
Relative Humidity: 26%
Pressure (altimeter): 30.06 in. Hg (1018 hPa)
ob: LLET 171450Z VRB02KT CAVOK 20/00 Q1018 RMK FEW060
cycle: 15

Station Type Date Time Source
LLET TAF 2019/02/17 12:09 UTC NOAA

TAF LLET 171104Z 1712/1812 18005KT CAVOK
BECMG 1714/1716 34008KT PROB30 1800/1811 5000 TSRA FEW060CB BKN080 TX20/1712Z TN10/1804Z


Example: see airport list